sensor_id;sensor_type;location;lat;lon;timestamp;temperature;humidity
30037;DHT22;36325;51.512;-0.382;2023-08-17T00:00:47;17.50;99.90
30037;DHT22;36325;51.512;-0.382;2023-08-17T00:03:15;17.50;99.90
30037;DHT22;36325;51.512;-0.382;2023-08-17T00:05:43;17.50;99.90
30037;DHT22;36325;51.512;-0.382;2023-08-17T00:08:10;17.40;99.90
30037;DHT22;36325;51.512;-0.382;2023-08-17T00:10:37;17.40;99.90
30037;DHT22;36325;51.512;-0.382;2023-08-17T00:13:06;17.40;99.90
30037;DHT22;36325;51.512;-0.382;2023-08-17T00:15:34;17.30;99.90
30037;DHT22;36325;51.512;-0.382;2023-08-17T00:18:04;17.30;99.90
30037;DHT22;36325;51.512;-0.382;2023-08-17T00:23:01;17.20;99.90
30037;DHT22;36325;51.512;-0.382;2023-08-17T00:25:28;17.10;99.90
30037;DHT22;36325;51.512;-0.382;2023-08-17T00:27:57;17.20;99.90
30037;DHT22;36325;51.512;-0.382;2023-08-17T00:30:24;17.10;99.90
30037;DHT22;36325;51.512;-0.382;2023-08-17T00:32:52;17.10;99.90
30037;DHT22;36325;51.512;-0.382;2023-08-17T00:35:20;17.00;99.90
30037;DHT22;36325;51.512;-0.382;2023-08-17T00:37:48;17.00;99.90
30037;DHT22;36325;51.512;-0.382;2023-08-17T00:40:16;17.00;99.90
30037;DHT22;36325;51.512;-0.382;2023-08-17T00:42:44;17.00;99.90
30037;DHT22;36325;51.512;-0.382;2023-08-17T00:45:15;17.00;99.90
30037;DHT22;36325;51.512;-0.382;2023-08-17T00:47:43;17.00;99.90
30037;DHT22;36325;51.512;-0.382;2023-08-17T00:50:11;17.00;99.90
30037;DHT22;36325;51.512;-0.382;2023-08-17T00:52:40;17.10;99.90
30037;DHT22;36325;51.512;-0.382;2023-08-17T00:55:09;17.10;99.90
30037;DHT22;36325;51.512;-0.382;2023-08-17T00:57:40;17.00;99.90
30037;DHT22;36325;51.512;-0.382;2023-08-17T01:00:11;17.10;99.90
30037;DHT22;36325;51.512;-0.382;2023-08-17T01:02:42;17.20;99.90
30037;DHT22;36325;51.512;-0.382;2023-08-17T01:07:37;17.20;99.90
30037;DHT22;36325;51.512;-0.382;2023-08-17T01:10:08;17.20;99.90
30037;DHT22;36325;51.512;-0.382;2023-08-17T01:13:00;17.20;99.90
30037;DHT22;36325;51.512;-0.382;2023-08-17T01:15:40;17.10;99.90
30037;DHT22;36325;51.512;-0.382;2023-08-17T01:18:34;17.10;99.90
30037;DHT22;36325;51.512;-0.382;2023-08-17T01:21:05;17.10;99.90
30037;DHT22;36325;51.512;-0.382;2023-08-17T01:23:32;17.00;99.90
30037;DHT22;36325;51.512;-0.382;2023-08-17T01:26:01;16.90;99.90
30037;DHT22;36325;51.512;-0.382;2023-08-17T01:28:29;16.80;99.90
30037;DHT22;36325;51.512;-0.382;2023-08-17T01:31:08;16.80;99.90
30037;DHT22;36325;51.512;-0.382;2023-08-17T01:33:40;16.80;99.90
30037;DHT22;36325;51.512;-0.382;2023-08-17T01:36:20;16.70;99.90
30037;DHT22;36325;51.512;-0.382;2023-08-17T01:38:51;16.70;99.90
30037;DHT22;36325;51.512;-0.382;2023-08-17T01:41:21;13.50;99.90
30037;DHT22;36325;51.512;-0.382;2023-08-17T01:43:50;16.60;99.90
30037;DHT22;36325;51.512;-0.382;2023-08-17T01:46:18;16.60;99.90
30037;DHT22;36325;51.512;-0.382;2023-08-17T01:48:47;16.60;99.90
30037;DHT22;36325;51.512;-0.382;2023-08-17T01:51:19;16.60;99.90
30037;DHT22;36325;51.512;-0.382;2023-08-17T01:54:18;16.50;99.90
30037;DHT22;36325;51.512;-0.382;2023-08-17T01:56:47;16.50;99.90
30037;DHT22;36325;51.512;-0.382;2023-08-17T01:59:17;16.50;99.90
30037;DHT22;36325;51.512;-0.382;2023-08-17T02:02:06;16.50;99.90
30037;DHT22;36325;51.512;-0.382;2023-08-17T02:04:35;16.50;99.90
30037;DHT22;36325;51.512;-0.382;2023-08-17T02:07:03;16.40;99.90
30037;DHT22;36325;51.512;-0.382;2023-08-17T02:09:31;16.50;99.90
30037;DHT22;36325;51.512;-0.382;2023-08-17T02:12:00;16.40;99.90
30037;DHT22;36325;51.512;-0.382;2023-08-17T02:14:27;16.40;99.90
30037;DHT22;36325;51.512;-0.382;2023-08-17T02:16:54;16.40;99.90
30037;DHT22;36325;51.512;-0.382;2023-08-17T02:19:23;16.40;99.90
30037;DHT22;36325;51.512;-0.382;2023-08-17T02:21:52;16.30;99.90
30037;DHT22;36325;51.512;-0.382;2023-08-17T02:24:19;16.30;99.90
30037;DHT22;36325;51.512;-0.382;2023-08-17T02:26:47;16.30;99.90
30037;DHT22;36325;51.512;-0.382;2023-08-17T02:29:14;16.30;99.90
30037;DHT22;36325;51.512;-0.382;2023-08-17T02:31:42;16.30;99.90
30037;DHT22;36325;51.512;-0.382;2023-08-17T02:34:09;16.30;99.90
30037;DHT22;36325;51.512;-0.382;2023-08-17T02:36:37;16.30;99.90
30037;DHT22;36325;51.512;-0.382;2023-08-17T02:39:05;16.30;99.90
30037;DHT22;36325;51.512;-0.382;2023-08-17T02:41:33;16.30;99.90
30037;DHT22;36325;51.512;-0.382;2023-08-17T02:44:01;16.30;99.90
30037;DHT22;36325;51.512;-0.382;2023-08-17T02:46:28;16.30;99.90
30037;DHT22;36325;51.512;-0.382;2023-08-17T02:48:56;16.40;99.90
30037;DHT22;36325;51.512;-0.382;2023-08-17T02:51:24;16.30;99.90
30037;DHT22;36325;51.512;-0.382;2023-08-17T02:53:51;16.30;99.90
30037;DHT22;36325;51.512;-0.382;2023-08-17T02:56:19;16.30;99.90
30037;DHT22;36325;51.512;-0.382;2023-08-17T02:58:47;16.30;99.90
30037;DHT22;36325;51.512;-0.382;2023-08-17T03:01:16;16.30;99.90
30037;DHT22;36325;51.512;-0.382;2023-08-17T03:03:43;16.30;99.90
30037;DHT22;36325;51.512;-0.382;2023-08-17T03:06:13;16.30;99.90
30037;DHT22;36325;51.512;-0.382;2023-08-17T03:08:42;16.30;99.90
30037;DHT22;36325;51.512;-0.382;2023-08-17T03:11:11;16.30;99.90
30037;DHT22;36325;51.512;-0.382;2023-08-17T03:13:39;16.30;99.90
30037;DHT22;36325;51.512;-0.382;2023-08-17T03:16:07;16.30;99.90
30037;DHT22;36325;51.512;-0.382;2023-08-17T03:18:34;16.30;99.90
30037;DHT22;36325;51.512;-0.382;2023-08-17T03:21:01;16.30;99.90
30037;DHT22;36325;51.512;-0.382;2023-08-17T03:23:29;16.20;99.90
30037;DHT22;36325;51.512;-0.382;2023-08-17T03:25:56;16.20;99.90
30037;DHT22;36325;51.512;-0.382;2023-08-17T03:28:27;16.20;99.90
30037;DHT22;36325;51.512;-0.382;2023-08-17T03:30:56;16.20;99.90
30037;DHT22;36325;51.512;-0.382;2023-08-17T03:33:25;16.20;99.90
30037;DHT22;36325;51.512;-0.382;2023-08-17T03:38:21;16.20;99.90
30037;DHT22;36325;51.512;-0.382;2023-08-17T03:40:50;16.20;99.90
30037;DHT22;36325;51.512;-0.382;2023-08-17T03:43:17;16.20;99.90
30037;DHT22;36325;51.512;-0.382;2023-08-17T03:45:46;16.10;99.90
30037;DHT22;36325;51.512;-0.382;2023-08-17T03:48:14;16.20;99.90
30037;DHT22;36325;51.512;-0.382;2023-08-17T03:50:44;16.20;99.90
30037;DHT22;36325;51.512;-0.382;2023-08-17T03:53:14;16.20;99.90
30037;DHT22;36325;51.512;-0.382;2023-08-17T03:55:49;16.20;99.90
30037;DHT22;36325;51.512;-0.382;2023-08-17T03:58:19;16.20;99.90
30037;DHT22;36325;51.512;-0.382;2023-08-17T04:01:02;16.10;99.90
30037;DHT22;36325;51.512;-0.382;2023-08-17T04:03:41;16.10;99.90
30037;DHT22;36325;51.512;-0.382;2023-08-17T04:06:17;16.10;99.90
30037;DHT22;36325;51.512;-0.382;2023-08-17T04:08:52;16.10;99.90
30037;DHT22;36325;51.512;-0.382;2023-08-17T04:11:28;16.10;99.90
30037;DHT22;36325;51.512;-0.382;2023-08-17T04:13:56;16.10;99.90
30037;DHT22;36325;51.512;-0.382;2023-08-17T04:16:23;15.90;99.90
30037;DHT22;36325;51.512;-0.382;2023-08-17T04:18:52;16.10;99.90
30037;DHT22;36325;51.512;-0.382;2023-08-17T04:21:20;16.00;99.90
30037;DHT22;36325;51.512;-0.382;2023-08-17T04:23:48;16.00;99.90
30037;DHT22;36325;51.512;-0.382;2023-08-17T04:26:15;16.00;99.90
30037;DHT22;36325;51.512;-0.382;2023-08-17T04:28:44;16.00;99.90
30037;DHT22;36325;51.512;-0.382;2023-08-17T04:31:12;16.00;99.90
30037;DHT22;36325;51.512;-0.382;2023-08-17T04:33:40;16.00;99.90
30037;DHT22;36325;51.512;-0.382;2023-08-17T04:36:08;16.00;99.90
30037;DHT22;36325;51.512;-0.382;2023-08-17T04:38:35;16.00;99.90
30037;DHT22;36325;51.512;-0.382;2023-08-17T04:41:03;16.00;99.90
30037;DHT22;36325;51.512;-0.382;2023-08-17T04:43:31;16.00;99.90
30037;DHT22;36325;51.512;-0.382;2023-08-17T04:45:59;15.90;99.90
30037;DHT22;36325;51.512;-0.382;2023-08-17T04:48:30;16.00;99.90
30037;DHT22;36325;51.512;-0.382;2023-08-17T04:51:00;16.00;99.90
30037;DHT22;36325;51.512;-0.382;2023-08-17T04:53:31;16.00;99.90
30037;DHT22;36325;51.512;-0.382;2023-08-17T04:56:02;16.00;99.90
30037;DHT22;36325;51.512;-0.382;2023-08-17T04:58:30;15.90;99.90
30037;DHT22;36325;51.512;-0.382;2023-08-17T05:00:59;16.00;99.90
30037;DHT22;36325;51.512;-0.382;2023-08-17T05:03:26;15.90;99.90
30037;DHT22;36325;51.512;-0.382;2023-08-17T05:06:00;16.00;99.90
30037;DHT22;36325;51.512;-0.382;2023-08-17T05:08:29;16.00;99.90
30037;DHT22;36325;51.512;-0.382;2023-08-17T05:10:58;16.00;99.90
30037;DHT22;36325;51.512;-0.382;2023-08-17T05:13:26;16.00;99.90
30037;DHT22;36325;51.512;-0.382;2023-08-17T05:15:56;16.00;99.90
30037;DHT22;36325;51.512;-0.382;2023-08-17T05:18:24;15.80;99.90
30037;DHT22;36325;51.512;-0.382;2023-08-17T05:20:52;16.10;99.90
30037;DHT22;36325;51.512;-0.382;2023-08-17T05:23:22;16.10;99.90
30037;DHT22;36325;51.512;-0.382;2023-08-17T05:25:51;16.10;99.90
30037;DHT22;36325;51.512;-0.382;2023-08-17T05:28:19;16.20;99.90
30037;DHT22;36325;51.512;-0.382;2023-08-17T05:30:47;16.20;99.90
30037;DHT22;36325;51.512;-0.382;2023-08-17T05:33:14;16.20;99.90
30037;DHT22;36325;51.512;-0.382;2023-08-17T05:38:10;16.30;99.90
30037;DHT22;36325;51.512;-0.382;2023-08-17T05:40:38;16.40;99.90
30037;DHT22;36325;51.512;-0.382;2023-08-17T05:43:05;16.40;99.90
30037;DHT22;36325;51.512;-0.382;2023-08-17T05:45:34;16.50;99.90
30037;DHT22;36325;51.512;-0.382;2023-08-17T05:48:05;16.50;99.90
30037;DHT22;36325;51.512;-0.382;2023-08-17T05:50:35;16.60;99.90
30037;DHT22;36325;51.512;-0.382;2023-08-17T05:53:03;16.60;99.90
30037;DHT22;36325;51.512;-0.382;2023-08-17T05:55:31;16.60;99.90
30037;DHT22;36325;51.512;-0.382;2023-08-17T06:00:28;16.70;99.90
30037;DHT22;36325;51.512;-0.382;2023-08-17T06:02:56;16.80;99.90
30037;DHT22;36325;51.512;-0.382;2023-08-17T06:05:37;16.90;99.90
30037;DHT22;36325;51.512;-0.382;2023-08-17T06:08:05;17.00;99.90
30037;DHT22;36325;51.512;-0.382;2023-08-17T06:10:33;16.90;99.90
30037;DHT22;36325;51.512;-0.382;2023-08-17T06:13:03;17.00;99.90
30037;DHT22;36325;51.512;-0.382;2023-08-17T06:15:32;17.10;99.90
30037;DHT22;36325;51.512;-0.382;2023-08-17T06:18:00;17.10;99.90
30037;DHT22;36325;51.512;-0.382;2023-08-17T06:20:29;18.20;99.90
30037;DHT22;36325;51.512;-0.382;2023-08-17T06:22:57;17.20;99.90
30037;DHT22;36325;51.512;-0.382;2023-08-17T06:25:27;17.30;99.90
30037;DHT22;36325;51.512;-0.382;2023-08-17T06:27:54;17.40;99.90
30037;DHT22;36325;51.512;-0.382;2023-08-17T06:30:23;17.50;99.90
30037;DHT22;36325;51.512;-0.382;2023-08-17T06:35:25;17.60;99.90
30037;DHT22;36325;51.512;-0.382;2023-08-17T06:37:58;17.60;99.90
30037;DHT22;36325;51.512;-0.382;2023-08-17T06:40:29;17.70;99.90
30037;DHT22;36325;51.512;-0.382;2023-08-17T06:42:57;17.80;99.90
30037;DHT22;36325;51.512;-0.382;2023-08-17T06:45:32;17.80;99.90
30037;DHT22;36325;51.512;-0.382;2023-08-17T06:48:07;18.00;99.90
30037;DHT22;36325;51.512;-0.382;2023-08-17T06:50:51;14.90;99.90
30037;DHT22;36325;51.512;-0.382;2023-08-17T06:55:59;18.10;99.90
30037;DHT22;36325;51.512;-0.382;2023-08-17T07:00:56;18.40;99.90
30037;DHT22;36325;51.512;-0.382;2023-08-17T07:03:25;18.40;99.90
30037;DHT22;36325;51.512;-0.382;2023-08-17T07:05:57;18.50;99.90
30037;DHT22;36325;51.512;-0.382;2023-08-17T07:08:39;18.70;99.90
30037;DHT22;36325;51.512;-0.382;2023-08-17T07:11:08;18.70;99.90
30037;DHT22;36325;51.512;-0.382;2023-08-17T07:13:49;18.80;99.90
30037;DHT22;36325;51.512;-0.382;2023-08-17T07:16:17;19.00;99.90
30037;DHT22;36325;51.512;-0.382;2023-08-17T07:18:44;19.10;99.90
30037;DHT22;36325;51.512;-0.382;2023-08-17T07:21:17;19.10;99.90
30037;DHT22;36325;51.512;-0.382;2023-08-17T07:23:45;19.20;99.90
30037;DHT22;36325;51.512;-0.382;2023-08-17T07:26:14;19.30;99.90
30037;DHT22;36325;51.512;-0.382;2023-08-17T07:28:45;19.40;99.90
30037;DHT22;36325;51.512;-0.382;2023-08-17T07:31:22;19.60;99.90
30037;DHT22;36325;51.512;-0.382;2023-08-17T07:33:49;19.70;99.90
30037;DHT22;36325;51.512;-0.382;2023-08-17T07:36:32;19.80;99.90
30037;DHT22;36325;51.512;-0.382;2023-08-17T07:39:00;19.80;99.90
30037;DHT22;36325;51.512;-0.382;2023-08-17T07:41:33;20.00;99.90
30037;DHT22;36325;51.512;-0.382;2023-08-17T07:44:05;20.30;99.90
30037;DHT22;36325;51.512;-0.382;2023-08-17T07:46:33;20.40;99.90
30037;DHT22;36325;51.512;-0.382;2023-08-17T07:49:04;20.60;99.90
30037;DHT22;36325;51.512;-0.382;2023-08-17T07:51:39;22.70;99.90
30037;DHT22;36325;51.512;-0.382;2023-08-17T07:54:07;20.90;99.90
30037;DHT22;36325;51.512;-0.382;2023-08-17T07:56:35;20.90;99.90
30037;DHT22;36325;51.512;-0.382;2023-08-17T07:59:03;21.10;99.90
30037;DHT22;36325;51.512;-0.382;2023-08-17T08:01:31;21.10;99.90
30037;DHT22;36325;51.512;-0.382;2023-08-17T08:04:02;21.40;99.90
30037;DHT22;36325;51.512;-0.382;2023-08-17T08:06:31;21.40;99.90
30037;DHT22;36325;51.512;-0.382;2023-08-17T08:09:00;21.60;99.90
30037;DHT22;36325;51.512;-0.382;2023-08-17T08:11:31;21.60;99.90
30037;DHT22;36325;51.512;-0.382;2023-08-17T08:13:59;21.70;99.90
30037;DHT22;36325;51.512;-0.382;2023-08-17T08:16:42;21.70;99.90
30037;DHT22;36325;51.512;-0.382;2023-08-17T08:19:14;21.70;99.90
30037;DHT22;36325;51.512;-0.382;2023-08-17T08:21:43;21.70;99.90
30037;DHT22;36325;51.512;-0.382;2023-08-17T08:24:20;21.80;99.90
30037;DHT22;36325;51.512;-0.382;2023-08-17T08:27:02;21.80;99.90
30037;DHT22;36325;51.512;-0.382;2023-08-17T08:29:32;21.80;99.90
30037;DHT22;36325;51.512;-0.382;2023-08-17T08:32:01;21.80;99.90
30037;DHT22;36325;51.512;-0.382;2023-08-17T08:34:30;21.70;99.90
30037;DHT22;36325;51.512;-0.382;2023-08-17T08:36:59;21.80;99.90
30037;DHT22;36325;51.512;-0.382;2023-08-17T08:39:26;21.90;99.90
30037;DHT22;36325;51.512;-0.382;2023-08-17T08:41:57;22.10;99.90
30037;DHT22;36325;51.512;-0.382;2023-08-17T08:44:24;22.10;99.90
30037;DHT22;36325;51.512;-0.382;2023-08-17T08:46:54;22.30;99.90
30037;DHT22;36325;51.512;-0.382;2023-08-17T08:49:23;22.60;99.90
30037;DHT22;36325;51.512;-0.382;2023-08-17T08:52:14;23.20;99.90
30037;DHT22;36325;51.512;-0.382;2023-08-17T08:55:51;23.50;99.90
30037;DHT22;36325;51.512;-0.382;2023-08-17T09:14:35;24.10;99.90
30037;DHT22;36325;51.512;-0.382;2023-08-17T09:17:37;24.60;99.90
30037;DHT22;36325;51.512;-0.382;2023-08-17T09:26:31;24.80;99.90
30037;DHT22;36325;51.512;-0.382;2023-08-17T09:32:07;24.60;99.90
30037;DHT22;36325;51.512;-0.382;2023-08-17T09:34:41;24.30;99.90
30037;DHT22;36325;51.512;-0.382;2023-08-17T09:40:08;24.30;99.90
30037;DHT22;36325;51.512;-0.382;2023-08-17T09:43:47;24.30;99.90
30037;DHT22;36325;51.512;-0.382;2023-08-17T09:46:37;24.80;99.90
30037;DHT22;36325;51.512;-0.382;2023-08-17T09:55:22;26.60;99.90
30037;DHT22;36325;51.512;-0.382;2023-08-17T10:14:04;28.10;99.90
30037;DHT22;36325;51.512;-0.382;2023-08-17T10:17:39;27.90;99.90
30037;DHT22;36325;51.512;-0.382;2023-08-17T10:21:10;27.90;99.90
30037;DHT22;36325;51.512;-0.382;2023-08-17T10:33:44;28.50;99.90
30037;DHT22;36325;51.512;-0.382;2023-08-17T10:36:43;28.60;99.90
30037;DHT22;36325;51.512;-0.382;2023-08-17T10:47:25;29.90;99.90
30037;DHT22;36325;51.512;-0.382;2023-08-17T10:50:23;30.20;99.90
30037;DHT22;36325;51.512;-0.382;2023-08-17T10:53:23;30.10;99.90
30037;DHT22;36325;51.512;-0.382;2023-08-17T10:56:13;29.80;99.90
30037;DHT22;36325;51.512;-0.382;2023-08-17T10:58:44;29.80;99.90
30037;DHT22;36325;51.512;-0.382;2023-08-17T11:01:13;30.40;99.90
30037;DHT22;36325;51.512;-0.382;2023-08-17T11:03:47;30.40;99.90
30037;DHT22;36325;51.512;-0.382;2023-08-17T11:06:38;30.40;99.90
30037;DHT22;36325;51.512;-0.382;2023-08-17T11:09:07;30.50;99.90
30037;DHT22;36325;51.512;-0.382;2023-08-17T11:11:36;30.50;99.90
30037;DHT22;36325;51.512;-0.382;2023-08-17T11:14:04;30.60;99.90
30037;DHT22;36325;51.512;-0.382;2023-08-17T11:19:00;30.90;99.90
30037;DHT22;36325;51.512;-0.382;2023-08-17T11:21:31;31.20;99.90
30037;DHT22;36325;51.512;-0.382;2023-08-17T11:23:59;31.20;99.90
30037;DHT22;36325;51.512;-0.382;2023-08-17T11:26:30;31.70;99.90
30037;DHT22;36325;51.512;-0.382;2023-08-17T11:29:01;31.60;99.90
30037;DHT22;36325;51.512;-0.382;2023-08-17T11:31:32;31.80;99.90
30037;DHT22;36325;51.512;-0.382;2023-08-17T11:34:29;32.20;99.90
30037;DHT22;36325;51.512;-0.382;2023-08-17T11:36:57;32.00;99.90
30037;DHT22;36325;51.512;-0.382;2023-08-17T11:39:34;32.10;99.90
30037;DHT22;36325;51.512;-0.382;2023-08-17T11:42:05;32.40;99.90
30037;DHT22;36325;51.512;-0.382;2023-08-17T11:44:36;32.60;99.90
30037;DHT22;36325;51.512;-0.382;2023-08-17T11:47:08;32.30;99.90
30037;DHT22;36325;51.512;-0.382;2023-08-17T11:49:38;32.30;99.90
30037;DHT22;36325;51.512;-0.382;2023-08-17T11:52:09;32.50;99.90
30037;DHT22;36325;51.512;-0.382;2023-08-17T11:54:45;32.80;99.90
30037;DHT22;36325;51.512;-0.382;2023-08-17T11:57:19;32.90;99.90
30037;DHT22;36325;51.512;-0.382;2023-08-17T11:59:55;33.10;99.90
30037;DHT22;36325;51.512;-0.382;2023-08-17T12:02:27;32.50;99.90
30037;DHT22;36325;51.512;-0.382;2023-08-17T12:05:10;32.50;99.90
30037;DHT22;36325;51.512;-0.382;2023-08-17T12:07:37;32.90;99.90
30037;DHT22;36325;51.512;-0.382;2023-08-17T12:10:06;33.20;99.90
30037;DHT22;36325;51.512;-0.382;2023-08-17T12:12:48;34.00;99.90
30037;DHT22;36325;51.512;-0.382;2023-08-17T12:15:18;34.30;99.90
30037;DHT22;36325;51.512;-0.382;2023-08-17T12:17:47;33.70;99.90
30037;DHT22;36325;51.512;-0.382;2023-08-17T12:20:21;33.70;99.90
30037;DHT22;36325;51.512;-0.382;2023-08-17T12:22:50;34.10;99.90
30037;DHT22;36325;51.512;-0.382;2023-08-17T12:25:21;34.00;99.90
30037;DHT22;36325;51.512;-0.382;2023-08-17T12:27:50;34.10;99.90
30037;DHT22;36325;51.512;-0.382;2023-08-17T12:30:29;34.20;99.90
30037;DHT22;36325;51.512;-0.382;2023-08-17T12:32:59;34.60;99.90
30037;DHT22;36325;51.512;-0.382;2023-08-17T12:35:33;34.10;99.90
30037;DHT22;36325;51.512;-0.382;2023-08-17T12:38:02;33.80;99.90
30037;DHT22;36325;51.512;-0.382;2023-08-17T12:40:30;33.50;99.90
30037;DHT22;36325;51.512;-0.382;2023-08-17T12:42:57;33.40;99.90
30037;DHT22;36325;51.512;-0.382;2023-08-17T12:45:25;33.60;99.90
30037;DHT22;36325;51.512;-0.382;2023-08-17T12:47:54;33.90;99.90
30037;DHT22;36325;51.512;-0.382;2023-08-17T12:50:29;33.40;99.90
30037;DHT22;36325;51.512;-0.382;2023-08-17T12:53:00;33.40;99.90
30037;DHT22;36325;51.512;-0.382;2023-08-17T12:55:29;33.60;99.90
30037;DHT22;36325;51.512;-0.382;2023-08-17T12:57:59;34.00;99.90
30037;DHT22;36325;51.512;-0.382;2023-08-17T13:00:27;34.30;99.90
30037;DHT22;36325;51.512;-0.382;2023-08-17T13:03:02;34.70;99.90
30037;DHT22;36325;51.512;-0.382;2023-08-17T13:05:32;34.80;99.90
30037;DHT22;36325;51.512;-0.382;2023-08-17T13:08:00;34.40;99.90
30037;DHT22;36325;51.512;-0.382;2023-08-17T13:10:29;34.20;99.90
30037;DHT22;36325;51.512;-0.382;2023-08-17T13:12:57;34.90;99.90
30037;DHT22;36325;51.512;-0.382;2023-08-17T13:15:28;35.00;99.90
30037;DHT22;36325;51.512;-0.382;2023-08-17T13:17:56;35.20;99.70
30037;DHT22;36325;51.512;-0.382;2023-08-17T13:20:23;35.30;99.90
30037;DHT22;36325;51.512;-0.382;2023-08-17T13:22:53;35.10;99.40
30037;DHT22;36325;51.512;-0.382;2023-08-17T13:25:20;34.90;99.30
30037;DHT22;36325;51.512;-0.382;2023-08-17T13:27:48;35.20;99.30
30037;DHT22;36325;51.512;-0.382;2023-08-17T13:30:20;35.50;98.70
30037;DHT22;36325;51.512;-0.382;2023-08-17T13:33:13;35.00;98.50
30037;DHT22;36325;51.512;-0.382;2023-08-17T13:35:41;34.70;98.60
30037;DHT22;36325;51.512;-0.382;2023-08-17T13:38:09;35.00;98.50
30037;DHT22;36325;51.512;-0.382;2023-08-17T13:40:38;35.60;98.40
30037;DHT22;36325;51.512;-0.382;2023-08-17T13:43:07;36.00;98.00
30037;DHT22;36325;51.512;-0.382;2023-08-17T13:45:40;36.40;97.50
30037;DHT22;36325;51.512;-0.382;2023-08-17T13:48:09;35.60;97.70
30037;DHT22;36325;51.512;-0.382;2023-08-17T13:50:38;34.70;98.20
30037;DHT22;36325;51.512;-0.382;2023-08-17T13:53:20;34.60;98.20
30037;DHT22;36325;51.512;-0.382;2023-08-17T13:55:49;34.70;98.10
30037;DHT22;36325;51.512;-0.382;2023-08-17T13:58:17;35.20;97.90
30037;DHT22;36325;51.512;-0.382;2023-08-17T14:00:51;36.00;97.40
30037;DHT22;36325;51.512;-0.382;2023-08-17T14:05:47;36.70;95.90
30037;DHT22;36325;51.512;-0.382;2023-08-17T14:08:15;37.40;95.90
30037;DHT22;36325;51.512;-0.382;2023-08-17T14:10:43;38.00;95.30
30037;DHT22;36325;51.512;-0.382;2023-08-17T14:15:42;39.30;93.80
30037;DHT22;36325;51.512;-0.382;2023-08-17T14:18:12;39.40;93.40
30037;DHT22;36325;51.512;-0.382;2023-08-17T14:20:40;38.80;93.10
30037;DHT22;36325;51.512;-0.382;2023-08-17T14:23:08;38.00;93.70
30037;DHT22;36325;51.512;-0.382;2023-08-17T14:25:38;37.50;93.60
30037;DHT22;36325;51.512;-0.382;2023-08-17T14:28:06;37.10;93.80
30037;DHT22;36325;51.512;-0.382;2023-08-17T14:30:35;36.40;94.20
30037;DHT22;36325;51.512;-0.382;2023-08-17T14:33:05;34.70;95.30
30037;DHT22;36325;51.512;-0.382;2023-08-17T14:35:40;34.60;95.80
30037;DHT22;36325;51.512;-0.382;2023-08-17T14:38:08;34.30;96.20
30037;DHT22;36325;51.512;-0.382;2023-08-17T14:40:53;34.30;96.50
30037;DHT22;36325;51.512;-0.382;2023-08-17T14:45:49;33.40;96.50
30037;DHT22;36325;51.512;-0.382;2023-08-17T14:48:22;32.30;98.10
30037;DHT22;36325;51.512;-0.382;2023-08-17T14:51:04;31.10;99.70
30037;DHT22;36325;51.512;-0.382;2023-08-17T14:56:06;30.70;99.90
30037;DHT22;36325;51.512;-0.382;2023-08-17T14:58:34;30.40;99.90
30037;DHT22;36325;51.512;-0.382;2023-08-17T15:01:06;31.50;99.70
30037;DHT22;36325;51.512;-0.382;2023-08-17T15:03:35;31.40;99.90
30037;DHT22;36325;51.512;-0.382;2023-08-17T15:06:04;31.60;99.90
30037;DHT22;36325;51.512;-0.382;2023-08-17T15:08:31;32.80;99.90
30037;DHT22;36325;51.512;-0.382;2023-08-17T15:11:00;32.60;99.60
30037;DHT22;36325;51.512;-0.382;2023-08-17T15:13:30;33.40;97.90
30037;DHT22;36325;51.512;-0.382;2023-08-17T15:15:58;33.40;98.20
30037;DHT22;36325;51.512;-0.382;2023-08-17T15:20:53;33.40;97.30
30037;DHT22;36325;51.512;-0.382;2023-08-17T15:23:22;33.10;97.90
30037;DHT22;36325;51.512;-0.382;2023-08-17T15:25:57;33.40;97.90
30037;DHT22;36325;51.512;-0.382;2023-08-17T15:28:25;32.30;97.20
30037;DHT22;36325;51.512;-0.382;2023-08-17T15:31:01;32.30;97.60
30037;DHT22;36325;51.512;-0.382;2023-08-17T15:33:29;32.10;98.50
30037;DHT22;36325;51.512;-0.382;2023-08-17T15:36:02;33.30;99.70
30037;DHT22;36325;51.512;-0.382;2023-08-17T15:38:30;31.30;99.60
30037;DHT22;36325;51.512;-0.382;2023-08-17T15:43:25;31.50;99.50
30037;DHT22;36325;51.512;-0.382;2023-08-17T15:45:52;31.40;99.90
30037;DHT22;36325;51.512;-0.382;2023-08-17T15:50:48;32.00;99.80
30037;DHT22;36325;51.512;-0.382;2023-08-17T15:53:16;32.40;99.70
30037;DHT22;36325;51.512;-0.382;2023-08-17T15:55:45;32.10;99.40
30037;DHT22;36325;51.512;-0.382;2023-08-17T15:58:13;32.00;99.90
30037;DHT22;36325;51.512;-0.382;2023-08-17T16:00:54;30.50;99.90
30037;DHT22;36325;51.512;-0.382;2023-08-17T16:03:22;30.00;99.90
30037;DHT22;36325;51.512;-0.382;2023-08-17T16:05:50;30.00;99.90
30037;DHT22;36325;51.512;-0.382;2023-08-17T16:08:19;30.10;99.90
30037;DHT22;36325;51.512;-0.382;2023-08-17T16:10:52;31.50;99.90
30037;DHT22;36325;51.512;-0.382;2023-08-17T16:13:20;32.40;98.90
30037;DHT22;36325;51.512;-0.382;2023-08-17T16:15:48;32.20;99.00
30037;DHT22;36325;51.512;-0.382;2023-08-17T16:18:21;31.60;99.20
30037;DHT22;36325;51.512;-0.382;2023-08-17T16:20:49;30.20;99.90
30037;DHT22;36325;51.512;-0.382;2023-08-17T16:23:18;30.20;99.90
30037;DHT22;36325;51.512;-0.382;2023-08-17T16:25:51;29.90;99.90
30037;DHT22;36325;51.512;-0.382;2023-08-17T16:28:19;29.60;99.90
30037;DHT22;36325;51.512;-0.382;2023-08-17T16:30:46;30.90;99.90
30037;DHT22;36325;51.512;-0.382;2023-08-17T16:33:14;30.90;99.90
30037;DHT22;36325;51.512;-0.382;2023-08-17T16:35:48;30.80;99.90
30037;DHT22;36325;51.512;-0.382;2023-08-17T16:38:16;30.20;99.90
30037;DHT22;36325;51.512;-0.382;2023-08-17T16:40:45;29.40;99.90
30037;DHT22;36325;51.512;-0.382;2023-08-17T16:43:13;28.70;99.90
30037;DHT22;36325;51.512;-0.382;2023-08-17T16:45:41;27.70;99.90
30037;DHT22;36325;51.512;-0.382;2023-08-17T16:48:08;27.40;99.90
30037;DHT22;36325;51.512;-0.382;2023-08-17T16:50:41;27.30;99.90
30037;DHT22;36325;51.512;-0.382;2023-08-17T16:53:09;27.20;99.90
30037;DHT22;36325;51.512;-0.382;2023-08-17T16:55:39;27.00;99.90
30037;DHT22;36325;51.512;-0.382;2023-08-17T16:58:07;27.10;99.90
30037;DHT22;36325;51.512;-0.382;2023-08-17T17:00:35;27.40;99.90
30037;DHT22;36325;51.512;-0.382;2023-08-17T17:05:35;27.50;99.90
30037;DHT22;36325;51.512;-0.382;2023-08-17T17:08:03;27.30;99.90
30037;DHT22;36325;51.512;-0.382;2023-08-17T17:10:32;27.30;99.90
30037;DHT22;36325;51.512;-0.382;2023-08-17T17:13:02;26.90;99.90
30037;DHT22;36325;51.512;-0.382;2023-08-17T17:15:30;26.70;99.90
30037;DHT22;36325;51.512;-0.382;2023-08-17T17:20:27;26.30;99.90
30037;DHT22;36325;51.512;-0.382;2023-08-17T17:25:25;25.70;99.90
30037;DHT22;36325;51.512;-0.382;2023-08-17T17:27:53;25.30;99.90
30037;DHT22;36325;51.512;-0.382;2023-08-17T17:30:22;25.30;99.90
30037;DHT22;36325;51.512;-0.382;2023-08-17T17:32:53;25.10;99.90
30037;DHT22;36325;51.512;-0.382;2023-08-17T17:35:21;25.00;99.90
30037;DHT22;36325;51.512;-0.382;2023-08-17T17:37:49;24.80;99.90